Time;durP1;ratioP1;P1;durP2;ratioP2;P2;SDS_P1;SDS_P2;PMS_P1;PMS_P2;Temp;Humidity;BMP_temperature;BMP_pressure;BME280_temperature;BME280_humidity;BME280_pressure;Samples;Min_cycle;Max_cycle;Signal;HPM_P1;HPM_P2
2021/10/30 00:02:20;;;;;;;8.50;2.65;;;23.00;52.50;;;;;;5037492;28;20022;-66
2021/10/30 00:04:48;;;;;;;10.68;3.13;;;22.90;52.30;;;;;;5036933;28;20025;-67
2021/10/30 00:07:17;;;;;;;9.98;2.63;;;23.00;52.70;;;;;;5037445;28;20024;-67
2021/10/30 00:09:45;;;;;;;8.15;2.20;;;22.90;52.80;;;;;;5035093;28;20032;-69
2021/10/30 00:12:12;;;;;;;9.52;2.67;;;22.60;53.70;;;;;;5028209;28;20415;-68
2021/10/30 00:14:39;;;;;;;11.55;2.40;;;22.90;52.40;;;;;;5034693;28;20014;-66
2021/10/30 00:17:06;;;;;;;6.32;2.30;;;22.80;53.20;;;;;;5036735;28;20036;-67
2021/10/30 00:19:33;;;;;;;10.82;2.75;;;22.50;53.00;;;;;;5037145;28;20099;-68
2021/10/30 00:22:00;;;;;;;12.40;2.75;;;21.90;54.70;;;;;;5036884;28;20086;-70
2021/10/30 00:24:31;;;;;;;9.63;2.75;;;21.80;54.60;;;;;;5036517;28;20030;-67
2021/10/30 00:26:58;;;;;;;10.50;2.55;;;22.20;54.10;;;;;;5036778;28;20486;-67
2021/10/30 00:29:25;;;;;;;8.23;2.40;;;22.70;53.00;;;;;;5035569;28;20060;-67
2021/10/30 00:31:54;;;;;;;7.32;2.03;;;22.60;52.20;;;;;;5036688;28;20024;-68
2021/10/30 00:34:22;;;;;;;12.23;2.25;;;22.80;51.90;;;;;;5034529;28;20087;-72
2021/10/30 00:36:50;;;;;;;9.32;2.50;;;22.30;52.40;;;;;;5035166;28;20025;-72
2021/10/30 00:39:17;;;;;;;13.23;2.67;;;22.20;54.10;;;;;;5035756;28;20028;-70
2021/10/30 00:41:52;;;;;;;8.60;2.60;;;22.40;53.00;;;;;;5035750;28;20034;-68
2021/10/30 00:44:21;;;;;;;10.43;2.85;;;22.70;52.80;;;;;;5036373;28;20036;-67
2021/10/30 00:46:50;;;;;;;7.00;2.10;;;22.90;52.60;;;;;;5035847;28;20040;-69
2021/10/30 00:49:19;;;;;;;8.45;1.63;;;22.70;50.60;;;;;;5035603;28;20372;-70
2021/10/30 00:51:51;;;;;;;8.65;2.33;;;22.70;50.40;;;;;;5036643;28;20059;-71
2021/10/30 00:54:19;;;;;;;11.70;3.00;;;22.80;51.70;;;;;;5049163;22;20095;-68
2021/10/30 00:56:49;;;;;;;6.70;2.40;;;23.10;49.50;;;;;;5046498;28;20024;-71
2021/10/30 00:59:17;;;;;;;8.88;2.38;;;23.00;49.60;;;;;;5045188;28;20029;-71
2021/10/30 01:01:48;;;;;;;12.25;2.53;;;22.90;49.10;;;;;;5045498;28;20103;-69
2021/10/30 01:04:16;;;;;;;6.25;1.90;;;23.20;48.10;;;;;;5045323;28;20475;-67
2021/10/30 01:06:46;;;;;;;12.48;2.50;;;23.40;48.90;;;;;;5046281;28;20025;-68
2021/10/30 01:09:13;;;;;;;10.30;2.50;;;24.00;46.30;;;;;;5044355;28;20025;-68
2021/10/30 01:11:42;;;;;;;7.53;2.40;;;23.30;48.40;;;;;;5045996;28;20075;-67
2021/10/30 01:14:11;;;;;;;8.02;1.95;;;23.60;47.60;;;;;;5045498;28;20029;-68
2021/10/30 01:16:38;;;;;;;10.02;1.95;;;23.50;47.80;;;;;;5046444;28;20447;-67
2021/10/30 01:19:05;;;;;;;7.70;2.80;;;23.30;46.60;;;;;;5045549;28;20056;-65
2021/10/30 01:21:34;;;;;;;7.07;2.25;;;22.60;48.00;;;;;;5044517;28;20031;-64
2021/10/30 01:24:05;;;;;;;6.95;2.00;;;22.40;48.90;;;;;;5045473;28;20485;-66
2021/10/30 01:26:33;;;;;;;7.70;2.00;;;22.50;48.50;;;;;;5044714;28;20033;-68
2021/10/30 01:29:00;;;;;;;7.22;2.30;;;23.10;48.20;;;;;;5045461;28;20110;-68
2021/10/30 01:31:27;;;;;;;8.80;3.10;;;23.20;47.40;;;;;;5042136;28;20499;-67
2021/10/30 01:33:54;;;;;;;10.45;2.47;;;23.00;48.20;;;;;;4347923;28;10021620;-63
2021/10/30 01:36:22;;;;;;;6.70;2.35;;;23.50;47.00;;;;;;5040550;28;20025;-65
2021/10/30 01:38:50;;;;;;;7.32;1.90;;;23.40;46.90;;;;;;5043195;28;20122;-65
2021/10/30 01:41:21;;;;;;;6.70;2.17;;;23.60;46.80;;;;;;5041608;28;20039;-65
2021/10/30 01:43:48;;;;;;;7.25;1.83;;;23.50;46.20;;;;;;5040531;28;20490;-66
2021/10/30 01:46:17;;;;;;;7.95;2.38;;;23.50;46.60;;;;;;5037836;28;20719;-68
2021/10/30 01:48:45;;;;;;;11.23;2.20;;;23.80;45.60;;;;;;5039949;28;20028;-69
2021/10/30 01:51:12;;;;;;;4.82;2.20;;;23.70;45.70;;;;;;5041127;28;20108;-67
2021/10/30 01:53:40;;;;;;;8.45;2.10;;;23.30;46.10;;;;;;5039343;28;20512;-69
2021/10/30 01:56:08;;;;;;;11.13;2.33;;;23.30;46.90;;;;;;5040992;28;20398;-69
2021/10/30 01:58:35;;;;;;;9.32;2.03;;;23.30;46.60;;;;;;5040161;28;20314;-66
2021/10/30 02:01:03;;;;;;;10.60;2.03;;;23.10;47.10;;;;;;5038041;28;20035;-66
2021/10/30 02:03:31;;;;;;;10.68;2.22;;;23.40;45.90;;;;;;5039377;28;20032;-66
2021/10/30 02:05:59;;;;;;;7.43;2.00;;;23.20;46.40;;;;;;5040446;28;20029;-73
2021/10/30 02:08:27;;;;;;;7.70;2.50;;;22.70;47.20;;;;;;5038871;28;20037;-74
2021/10/30 02:10:54;;;;;;;8.10;2.13;;;22.90;47.30;;;;;;5040786;28;20037;-76
2021/10/30 02:13:22;;;;;;;7.28;2.63;;;23.10;46.60;;;;;;5041352;28;20029;-74
2021/10/30 02:15:50;;;;;;;7.45;1.90;;;23.40;46.60;;;;;;5040174;28;20029;-71
2021/10/30 02:18:17;;;;;;;6.78;2.17;;;23.90;46.50;;;;;;5041084;28;20111;-69
2021/10/30 02:20:45;;;;;;;8.85;2.47;;;23.30;46.10;;;;;;5040700;28;20032;-71
2021/10/30 02:23:13;;;;;;;8.73;2.40;;;23.00;47.00;;;;;;5040810;28;20086;-71
2021/10/30 02:25:40;;;;;;;11.60;2.38;;;23.20;47.00;;;;;;5039793;28;20032;-69
2021/10/30 02:28:07;;;;;;;8.48;1.98;;;23.20;46.00;;;;;;5040994;28;20028;-70
2021/10/30 02:30:34;;;;;;;8.60;2.30;;;23.30;46.60;;;;;;5040665;28;20029;-69
2021/10/30 02:33:01;;;;;;;4.85;1.92;;;22.50;47.40;;;;;;5041796;28;20033;-71
2021/10/30 02:35:28;;;;;;;9.93;1.92;;;22.40;47.90;;;;;;5039883;28;20021;-69
2021/10/30 02:37:55;;;;;;;6.05;1.83;;;22.40;49.20;;;;;;5040728;28;20028;-70
2021/10/30 02:40:23;;;;;;;10.85;2.42;;;23.00;47.60;;;;;;5042195;28;20044;-66
2021/10/30 02:42:50;;;;;;;7.88;2.10;;;23.30;47.30;;;;;;5042137;28;20032;-70
2021/10/30 02:45:17;;;;;;;10.00;2.15;;;23.40;47.10;;;;;;5040280;28;20562;-69
2021/10/30 02:47:44;;;;;;;12.40;2.38;;;24.00;45.10;;;;;;5041050;28;20037;-71
2021/10/30 02:50:11;;;;;;;5.63;2.20;;;23.60;46.00;;;;;;5041636;28;20025;-67
2021/10/30 02:52:38;;;;;;;13.93;4.03;;;23.40;46.20;;;;;;5040856;28;20029;-72
2021/10/30 02:55:05;;;;;;;8.02;2.38;;;23.50;45.80;;;;;;5041196;28;20086;-66
2021/10/30 02:57:32;;;;;;;7.82;2.13;;;23.50;46.20;;;;;;5039683;28;20025;-72
2021/10/30 03:00:00;;;;;;;9.38;2.15;;;23.70;46.00;;;;;;5040372;28;20017;-69
2021/10/30 03:02:27;;;;;;;6.95;2.50;;;23.60;45.30;;;;;;5039835;28;20025;-67
2021/10/30 03:04:54;;;;;;;7.78;2.20;;;23.80;45.70;;;;;;5041281;28;20017;-68
2021/10/30 03:07:22;;;;;;;7.90;1.95;;;24.20;46.10;;;;;;5039488;28;20063;-67
2021/10/30 03:09:50;;;;;;;6.65;1.90;;;24.20;44.60;;;;;;5038305;28;20491;-66
2021/10/30 03:12:20;;;;;;;9.07;2.25;;;23.80;44.90;;;;;;5040243;28;20074;-70
2021/10/30 03:14:47;;;;;;;8.55;2.30;;;22.90;46.70;;;;;;5040968;28;20024;-70
2021/10/30 03:17:14;;;;;;;8.38;2.00;;;23.10;46.40;;;;;;5039683;28;20052;-70
2021/10/30 03:19:42;;;;;;;6.68;2.67;;;23.30;46.30;;;;;;5039468;28;20029;-74
2021/10/30 03:22:09;;;;;;;11.13;3.05;;;23.60;45.90;;;;;;5039472;28;20119;-65
2021/10/30 03:24:36;;;;;;;6.03;2.28;;;23.00;46.00;;;;;;5043825;28;20479;-68
2021/10/30 03:27:04;;;;;;;8.50;2.47;;;22.60;47.00;;;;;;5044178;28;20040;-67
2021/10/30 03:29:31;;;;;;;11.38;2.60;;;22.40;47.30;;;;;;5043479;28;20072;-69
2021/10/30 03:31:58;;;;;;;8.40;3.10;;;21.80;48.00;;;;;;5042903;28;20502;-68
2021/10/30 03:34:25;;;;;;;9.52;2.30;;;21.40;49.50;;;;;;5043060;28;20025;-66
2021/10/30 03:36:52;;;;;;;7.00;1.85;;;21.30;49.40;;;;;;5043242;28;20076;-73
2021/10/30 03:39:19;;;;;;;6.35;2.05;;;21.70;49.80;;;;;;5044096;28;20025;-67
2021/10/30 03:41:46;;;;;;;5.88;1.75;;;23.00;48.70;;;;;;5043388;28;20495;-67
2021/10/30 03:44:13;;;;;;;8.05;2.17;;;23.60;46.10;;;;;;5042304;28;20419;-67
2021/10/30 03:46:40;;;;;;;4.60;1.98;;;22.90;46.00;;;;;;5041726;28;20059;-68
2021/10/30 03:49:07;;;;;;;10.50;2.50;;;22.20;48.50;;;;;;5044853;28;20033;-75
2021/10/30 03:51:34;;;;;;;7.93;2.15;;;22.40;47.90;;;;;;5044540;28;20025;-69
2021/10/30 03:54:01;;;;;;;8.52;2.08;;;22.80;46.80;;;;;;5046078;28;20045;-68
2021/10/30 03:56:28;;;;;;;6.68;1.70;;;22.70;46.60;;;;;;5046168;28;20021;-69
2021/10/30 03:58:55;;;;;;;7.22;2.05;;;22.10;47.90;;;;;;5046150;28;20257;-68
2021/10/30 04:01:22;;;;;;;6.25;2.03;;;21.60;48.40;;;;;;5045878;28;20047;-74
2021/10/30 04:03:49;;;;;;;5.45;2.05;;;21.30;50.50;;;;;;5045990;28;20029;-68
2021/10/30 04:06:18;;;;;;;10.50;2.40;;;21.20;50.40;;;;;;5046312;28;20039;-69
2021/10/30 04:08:45;;;;;;;8.98;1.85;;;21.00;50.00;;;;;;5046029;28;20025;-75
2021/10/30 04:11:12;;;;;;;6.40;1.83;;;20.90;50.00;;;;;;5046751;28;20021;-75
2021/10/30 04:13:39;;;;;;;6.45;2.03;;;21.20;50.80;;;;;;5046375;28;20017;-72
2021/10/30 04:16:06;;;;;;;6.25;2.13;;;21.80;49.80;;;;;;5044449;28;20032;-69
2021/10/30 04:18:33;;;;;;;7.40;1.73;;;22.30;48.60;;;;;;5045705;28;20025;-75
2021/10/30 04:21:00;;;;;;;24.55;12.15;;;22.00;49.10;;;;;;5046184;28;20036;-68
2021/10/30 04:23:27;;;;;;;8.43;2.45;;;21.70;49.40;;;;;;5044858;28;20486;-70
2021/10/30 04:25:54;;;;;;;7.25;2.38;;;21.10;50.30;;;;;;5045349;28;20123;-67
2021/10/30 04:28:21;;;;;;;7.50;2.03;;;20.80;51.40;;;;;;5046001;28;20063;-67
2021/10/30 04:30:49;;;;;;;8.75;2.20;;;21.00;51.90;;;;;;5044612;28;20037;-70
2021/10/30 04:33:17;;;;;;;7.93;1.98;;;21.50;51.90;;;;;;5045178;28;20032;-72
2021/10/30 04:35:46;;;;;;;4.57;1.85;;;21.70;50.40;;;;;;5043181;28;20472;-73
2021/10/30 04:38:13;;;;;;;5.32;1.88;;;21.60;50.40;;;;;;5045586;28;20021;-72
2021/10/30 04:40:40;;;;;;;6.57;2.15;;;21.90;49.90;;;;;;5044724;28;20118;-72
2021/10/30 04:43:08;;;;;;;7.85;1.88;;;22.20;48.40;;;;;;5043572;28;20199;-74
2021/10/30 04:45:38;;;;;;;6.25;1.45;;;21.20;50.30;;;;;;5044466;28;20087;-73
2021/10/30 04:48:05;;;;;;;10.85;2.45;;;20.90;53.10;;;;;;5042737;28;20040;-66
2021/10/30 04:50:32;;;;;;;8.80;2.00;;;20.20;52.30;;;;;;5045981;28;20047;-69
2021/10/30 04:53:00;;;;;;;8.95;1.92;;;19.90;53.50;;;;;;5045486;28;21227;-68
2021/10/30 04:55:27;;;;;;;9.40;2.13;;;20.60;52.80;;;;;;5044105;28;20125;-67
2021/10/30 04:57:54;;;;;;;6.43;1.85;;;21.50;50.90;;;;;;5045282;28;20033;-70
2021/10/30 05:00:21;;;;;;;5.75;1.95;;;21.50;50.70;;;;;;5046553;28;20436;-70
2021/10/30 05:02:48;;;;;;;5.88;1.88;;;22.00;50.00;;;;;;5043651;28;20224;-70
2021/10/30 05:05:15;;;;;;;10.02;2.10;;;22.30;48.60;;;;;;5045063;28;20032;-65
2021/10/30 05:07:42;;;;;;;6.15;1.70;;;21.30;50.10;;;;;;5046159;28;20554;-66
2021/10/30 05:10:09;;;;;;;7.47;2.25;;;20.40;52.90;;;;;;5046164;28;20025;-66
2021/10/30 05:12:36;;;;;;;7.18;2.30;;;19.80;54.70;;;;;;5045898;28;20562;-69
2021/10/30 05:15:03;;;;;;;8.10;1.90;;;19.50;54.70;;;;;;5046300;28;20040;-67
2021/10/30 05:17:31;;;;;;;5.95;1.88;;;19.20;55.40;;;;;;5046361;28;20094;-66
2021/10/30 05:19:58;;;;;;;10.10;2.00;;;19.20;55.50;;;;;;5046703;28;20029;-69
2021/10/30 05:22:24;;;;;;;5.85;1.60;;;19.80;55.00;;;;;;5060104;28;20013;-70
2021/10/30 05:24:51;;;;;;;4.78;1.95;;;20.10;54.10;;;;;;5060604;28;20025;-73
2021/10/30 05:27:19;;;;;;;6.03;1.58;;;20.50;54.90;;;;;;5056431;28;20025;-72
2021/10/30 05:29:46;;;;;;;8.30;2.60;;;20.70;52.60;;;;;;5059971;28;20029;-69
2021/10/30 05:32:13;;;;;;;6.10;1.75;;;20.40;53.60;;;;;;5054871;28;20045;-67
2021/10/30 05:34:40;;;;;;;7.43;1.92;;;19.80;54.40;;;;;;5056520;28;20530;-72
2021/10/30 05:37:08;;;;;;;6.40;1.80;;;19.50;54.80;;;;;;5062156;28;20021;-74
2021/10/30 05:39:36;;;;;;;7.13;1.73;;;18.90;56.60;;;;;;5055564;28;20777;-73
2021/10/30 05:42:05;;;;;;;8.20;1.73;;;18.50;56.70;;;;;;5061558;28;20380;-66
2021/10/30 05:44:33;;;;;;;6.60;1.52;;;18.40;57.50;;;;;;5053108;28;20037;-75
2021/10/30 05:47:01;;;;;;;6.35;1.80;;;18.60;58.20;;;;;;5054947;28;20056;-68
2021/10/30 05:49:28;;;;;;;4.63;1.42;;;19.60;55.90;;;;;;5064571;28;20040;-69
2021/10/30 05:51:55;;;;;;;10.55;2.17;;;20.00;53.90;;;;;;5061354;28;20024;-68
2021/10/30 05:54:22;;;;;;;5.80;1.30;;;19.40;55.80;;;;;;5059707;28;20541;-72
2021/10/30 05:56:49;;;;;;;7.55;2.20;;;19.00;56.00;;;;;;5061026;28;20043;-73
2021/10/30 05:59:16;;;;;;;5.35;1.50;;;18.70;57.40;;;;;;5059437;28;20028;-67
2021/10/30 06:01:43;;;;;;;5.43;1.58;;;18.50;57.40;;;;;;5059721;28;20480;-73
2021/10/30 06:04:10;;;;;;;9.23;1.55;;;18.40;59.10;;;;;;5061613;28;20150;-67
2021/10/30 06:06:37;;;;;;;8.60;1.98;;;18.40;58.50;;;;;;5060812;28;20028;-71
2021/10/30 06:09:04;;;;;;;6.00;1.60;;;18.50;58.30;;;;;;5058446;28;20033;-71
2021/10/30 06:11:31;;;;;;;8.07;1.80;;;18.60;57.80;;;;;;5059642;28;20075;-67
2021/10/30 06:13:58;;;;;;;6.75;1.88;;;18.60;57.50;;;;;;5062410;28;20008;-69
2021/10/30 06:16:26;;;;;;;7.30;1.30;;;18.40;58.90;;;;;;5059171;28;20100;-74
2021/10/30 06:18:53;;;;;;;6.82;1.77;;;18.20;59.50;;;;;;5059807;28;20432;-74
2021/10/30 06:21:20;;;;;;;9.80;2.80;;;18.00;60.10;;;;;;5057982;28;20012;-72
2021/10/30 06:23:49;;;;;;;6.70;1.75;;;17.70;59.80;;;;;;5061432;28;20021;-71
2021/10/30 06:26:17;;;;;;;7.47;2.17;;;17.30;61.20;;;;;;5057992;28;20029;-67
2021/10/30 06:28:45;;;;;;;6.90;1.70;;;17.30;61.40;;;;;;5055767;28;20027;-75
2021/10/30 06:31:12;;;;;;;7.82;1.90;;;17.20;62.20;;;;;;5051966;28;20120;-67
2021/10/30 06:33:41;;;;;;;7.32;2.15;;;17.20;62.60;;;;;;5056405;28;20043;-67
2021/10/30 06:36:08;;;;;;;8.40;2.22;;;17.10;63.30;;;;;;5058531;28;20024;-74
2021/10/30 06:38:36;;;;;;;8.50;1.85;;;17.00;64.80;;;;;;5054993;28;20021;-71
2021/10/30 06:41:05;;;;;;;6.03;2.05;;;17.10;65.60;;;;;;5060589;28;20029;-67
2021/10/30 06:43:32;;;;;;;6.35;1.80;;;17.10;63.90;;;;;;5051735;28;20386;-72
2021/10/30 06:45:59;;;;;;;7.50;2.25;;;17.00;64.40;;;;;;5054681;28;20032;-67
2021/10/30 06:48:26;;;;;;;6.43;2.10;;;16.80;64.80;;;;;;5055244;28;20017;-67
2021/10/30 06:50:54;;;;;;;5.13;1.65;;;16.60;66.50;;;;;;5058887;28;20051;-68
2021/10/30 06:53:21;;;;;;;8.00;1.48;;;16.70;65.30;;;;;;5058266;28;20053;-75
2021/10/30 06:55:54;;;;;;;5.28;1.60;;;16.80;64.80;;;;;;5058725;28;20129;-73
2021/10/30 06:58:21;;;;;;;5.55;1.50;;;16.70;64.40;;;;;;5057950;28;20020;-68
2021/10/30 07:00:49;;;;;;;4.10;1.20;;;16.60;65.00;;;;;;5058363;28;20032;-71
2021/10/30 07:03:16;;;;;;;7.07;1.40;;;16.60;65.30;;;;;;5059579;28;20029;-68
2021/10/30 07:05:43;;;;;;;12.10;2.53;;;16.60;64.60;;;;;;5057611;28;20392;-76
2021/10/30 07:08:10;;;;;;;4.50;1.60;;;16.50;65.60;;;;;;5060044;28;20364;-74
2021/10/30 07:10:37;;;;;;;7.10;1.60;;;16.50;66.50;;;;;;5054764;28;20550;-69
2021/10/30 07:13:04;;;;;;;4.68;1.80;;;16.60;65.30;;;;;;5057671;28;20062;-73
2021/10/30 07:15:31;;;;;;;9.35;2.95;;;16.40;65.60;;;;;;5051165;28;20024;-69
2021/10/30 07:17:58;;;;;;;6.18;1.90;;;16.50;65.30;;;;;;5054967;28;20036;-66
2021/10/30 07:20:25;;;;;;;8.90;2.25;;;16.60;65.80;;;;;;5057195;28;20029;-66
2021/10/30 07:22:52;;;;;;;6.45;1.80;;;16.60;64.10;;;;;;5060713;28;20513;-68
2021/10/30 07:25:22;;;;;;;6.88;2.03;;;16.60;65.60;;;;;;5056690;28;20023;-69
2021/10/30 07:27:51;;;;;;;10.05;1.80;;;16.50;64.70;;;;;;5058743;28;20021;-73
2021/10/30 07:30:18;;;;;;;5.68;1.70;;;16.50;65.10;;;;;;5060145;28;20542;-68
2021/10/30 07:32:51;;;;;;;3.90;1.50;;;16.40;65.70;;;;;;5058429;28;20083;-69
2021/10/30 07:35:18;;;;;;;;;;;16.40;65.60;;;;;;5055572;28;20025;-70
2021/10/30 07:37:45;;;;;;;13.73;2.25;;;16.30;65.70;;;;;;5055943;28;20550;-68
2021/10/30 07:40:12;;;;;;;6.03;2.15;;;16.20;65.70;;;;;;5059509;28;20029;-71
2021/10/30 07:42:39;;;;;;;8.80;1.88;;;16.10;66.10;;;;;;5057126;28;20020;-68
2021/10/30 07:45:06;;;;;;;3.67;1.27;;;16.00;66.80;;;;;;5057792;28;20124;-75
2021/10/30 07:47:34;;;;;;;4.15;1.70;;;16.00;66.80;;;;;;5064696;28;20027;-68
2021/10/30 07:50:03;;;;;;;6.18;1.55;;;15.90;66.80;;;;;;5054361;28;20040;-66
2021/10/30 07:52:30;;;;;;;5.63;1.60;;;16.00;66.80;;;;;;5055698;28;20052;-67
2021/10/30 07:54:58;;;;;;;5.57;1.40;;;16.00;68.60;;;;;;5063193;28;20059;-75
2021/10/30 07:57:25;;;;;;;6.43;1.30;;;16.00;66.50;;;;;;5055531;28;20491;-75
2021/10/30 07:59:52;;;;;;;9.07;1.65;;;16.00;67.60;;;;;;5055543;28;20492;-73
2021/10/30 08:02:20;;;;;;;4.63;1.08;;;16.00;67.00;;;;;;5056890;28;20033;-76
2021/10/30 08:04:47;;;;;;;5.63;1.40;;;15.90;67.10;;;;;;5050241;28;20124;-68
2021/10/30 08:07:15;;;;;;;8.63;1.80;;;15.90;68.70;;;;;;5053703;28;20025;-67
2021/10/30 08:09:42;;;;;;;5.80;1.25;;;15.80;68.20;;;;;;5050831;28;20063;-73
2021/10/30 08:12:11;;;;;;;5.10;1.40;;;15.90;68.20;;;;;;5054523;28;20057;-71
2021/10/30 08:14:39;;;;;;;5.07;1.77;;;15.90;67.70;;;;;;5056955;28;20107;-78
2021/10/30 08:17:07;;;;;;;8.80;2.03;;;16.00;67.80;;;;;;5055553;28;20032;-66
2021/10/30 08:19:34;;;;;;;7.13;1.65;;;15.90;67.90;;;;;;5055731;28;20017;-68
2021/10/30 08:22:03;;;;;;;4.63;1.60;;;15.90;67.90;;;;;;5053640;28;20067;-66
2021/10/30 08:24:30;;;;;;;8.00;1.88;;;15.90;67.60;;;;;;5054206;28;20029;-69
2021/10/30 08:26:57;;;;;;;4.75;1.40;;;15.90;68.40;;;;;;5051144;28;20170;-68
2021/10/30 08:29:24;;;;;;;8.30;1.73;;;15.90;67.80;;;;;;5052677;28;20020;-75
2021/10/30 08:31:52;;;;;;;7.43;1.73;;;15.90;69.00;;;;;;5059123;28;20108;-75
2021/10/30 08:34:19;;;;;;;4.30;1.30;;;16.00;67.40;;;;;;5054961;28;20078;-69
2021/10/30 08:36:46;;;;;;;11.27;1.67;;;15.90;68.10;;;;;;5056330;28;20112;-70
2021/10/30 08:39:13;;;;;;;8.85;1.55;;;15.90;68.70;;;;;;5052421;28;20025;-75
2021/10/30 08:41:41;;;;;;;8.95;1.50;;;15.80;67.60;;;;;;5054996;28;20128;-74
2021/10/30 08:44:08;;;;;;;4.93;1.70;;;15.70;68.40;;;;;;5053820;28;20044;-74
2021/10/30 08:46:37;;;;;;;6.55;1.52;;;15.70;68.80;;;;;;5054832;28;20103;-73
2021/10/30 08:49:06;;;;;;;6.38;2.05;;;15.80;68.50;;;;;;5048992;28;20037;-65
2021/10/30 08:51:33;;;;;;;8.50;1.73;;;15.80;68.60;;;;;;5054704;28;20063;-74
2021/10/30 08:54:01;;;;;;;5.93;1.83;;;15.80;68.30;;;;;;5056983;28;20135;-66
2021/10/30 08:56:28;;;;;;;9.70;2.15;;;15.90;67.90;;;;;;5056917;28;20116;-70
2021/10/30 08:58:56;;;;;;;4.78;1.35;;;15.90;68.60;;;;;;5055788;28;20107;-71
2021/10/30 09:01:23;;;;;;;4.03;1.45;;;15.90;67.90;;;;;;5056440;28;20108;-71
2021/10/30 09:04:01;;;;;;;5.88;1.55;;;15.80;69.00;;;;;;5052326;28;20029;-67
2021/10/30 09:06:46;;;;;;;2.35;1.00;;;15.90;67.90;;;;;;4358778;28;10021613;-69
2021/10/30 09:09:14;;;;;;;6.57;1.85;;;15.90;68.70;;;;;;5046515;28;20110;-74
2021/10/30 09:11:42;;;;;;;8.77;2.58;;;15.80;69.10;;;;;;5046472;28;20029;-72
2021/10/30 09:14:27;;;;;;;6.28;2.00;;;15.70;69.20;;;;;;5046123;28;20096;-73
2021/10/30 09:17:19;;;;;;;6.13;1.33;;;15.80;68.90;;;;;;5046666;28;20036;-69
2021/10/30 09:19:51;;;;;;;7.37;1.60;;;15.80;69.50;;;;;;5045223;28;20052;-73
2021/10/30 09:22:20;;;;;;;6.13;2.05;;;15.80;68.50;;;;;;5046621;28;20055;-71
2021/10/30 09:25:05;;;;;;;4.90;1.52;;;15.70;69.70;;;;;;5046133;28;20036;-63
2021/10/30 09:27:47;;;;;;;7.55;1.50;;;15.80;69.40;;;;;;5040566;28;20055;-71
2021/10/30 09:30:21;;;;;;;3.38;1.55;;;16.00;68.90;;;;;;5037785;28;20038;-66
2021/10/30 09:33:01;;;;;;;7.13;1.73;;;16.00;68.90;;;;;;5044969;28;20039;-70
2021/10/30 09:35:33;;;;;;;5.72;1.60;;;16.00;68.20;;;;;;5046161;28;20034;-72
2021/10/30 09:38:01;;;;;;;5.20;1.70;;;15.90;68.00;;;;;;5045468;28;20029;-71
2021/10/30 09:40:33;;;;;;;6.38;2.00;;;15.80;69.50;;;;;;5045257;28;20044;-64
2021/10/30 09:43:19;;;;;;;4.82;1.65;;;15.90;68.90;;;;;;5042493;28;20542;-70
2021/10/30 09:45:50;;;;;;;5.90;1.05;;;15.80;68.70;;;;;;5046689;28;20025;-71
2021/10/30 09:48:24;;;;;;;7.72;1.85;;;15.90;69.50;;;;;;5036718;28;20014;-66
2021/10/30 09:50:58;;;;;;;4.70;1.70;;;16.00;68.30;;;;;;5042841;28;20032;-73
2021/10/30 09:53:31;;;;;;;6.43;1.60;;;15.90;68.50;;;;;;5045596;28;20045;-66
2021/10/30 09:56:10;;;;;;;5.97;1.75;;;15.90;68.70;;;;;;5039889;28;20021;-73
2021/10/30 09:58:36;;;;;;;6.85;1.42;;;15.90;69.60;;;;;;5045551;28;20584;-68
2021/10/30 10:01:13;;;;;;;7.45;1.38;;;15.90;69.00;;;;;;5046030;28;20333;-66
2021/10/30 10:03:42;;;;;;;6.90;1.52;;;15.90;69.90;;;;;;5045300;28;20025;-68
2021/10/30 10:06:17;;;;;;;7.00;1.80;;;15.90;69.20;;;;;;5042205;28;20554;-67
2021/10/30 10:08:44;;;;;;;9.75;1.67;;;15.90;69.10;;;;;;5045627;28;20055;-74
2021/10/30 10:11:14;;;;;;;5.88;1.60;;;15.90;69.70;;;;;;5044460;28;20158;-66
2021/10/30 10:13:44;;;;;;;9.27;1.80;;;15.90;69.90;;;;;;5038532;28;20078;-71
2021/10/30 10:16:16;;;;;;;7.47;2.33;;;15.90;69.70;;;;;;5047664;28;20082;-65
2021/10/30 10:18:51;;;;;;;7.50;1.85;;;15.70;70.10;;;;;;5046531;28;20071;-68
2021/10/30 10:21:34;;;;;;;8.95;1.73;;;15.70;70.80;;;;;;5045762;28;20545;-68
2021/10/30 10:24:13;;;;;;;4.82;1.40;;;15.80;70.90;;;;;;5039923;28;20032;-66
2021/10/30 10:26:49;;;;;;;6.60;1.80;;;15.90;69.90;;;;;;5053404;28;20032;-66
2021/10/30 10:29:46;;;;;;;4.07;1.67;;;15.90;70.20;;;;;;5048665;28;20044;-65
2021/10/30 10:32:25;;;;;;;5.95;1.92;;;15.80;71.20;;;;;;5041559;28;20502;-69
2021/10/30 10:34:53;;;;;;;8.15;1.77;;;15.80;71.70;;;;;;5046895;28;20021;-68
2021/10/30 10:37:22;;;;;;;8.38;1.60;;;15.90;71.00;;;;;;5042164;28;20040;-66
2021/10/30 10:39:53;;;;;;;6.38;1.60;;;15.90;70.20;;;;;;5046111;28;20044;-68
2021/10/30 10:42:38;;;;;;;3.63;1.48;;;15.90;70.00;;;;;;5044504;28;20138;-63
2021/10/30 10:45:06;;;;;;;7.88;1.33;;;15.80;70.50;;;;;;5045209;28;20115;-65
2021/10/30 10:47:38;;;;;;;9.10;1.48;;;15.80;71.60;;;;;;5046329;28;20017;-64
2021/10/30 10:50:34;;;;;;;4.40;1.30;;;15.70;71.70;;;;;;5043935;28;20128;-66
2021/10/30 10:53:01;;;;;;;7.55;1.98;;;15.70;71.10;;;;;;5041469;28;20064;-68
2021/10/30 10:55:30;;;;;;;8.55;2.17;;;15.70;71.40;;;;;;5045527;28;20119;-70
2021/10/30 10:58:07;;;;;;;6.07;1.83;;;15.60;72.30;;;;;;5044005;28;20425;-65
2021/10/30 11:00:36;;;;;;;6.60;1.52;;;15.60;72.10;;;;;;5046673;28;20017;-64
2021/10/30 11:03:04;;;;;;;4.50;1.65;;;15.70;72.70;;;;;;5048255;28;20093;-66
2021/10/30 11:05:33;;;;;;;6.75;1.73;;;15.80;71.70;;;;;;5041593;28;20049;-71
2021/10/30 11:08:02;;;;;;;5.78;1.35;;;15.70;72.70;;;;;;5041050;28;20059;-70
2021/10/30 11:10:31;;;;;;;5.55;1.20;;;15.80;71.70;;;;;;5043585;28;20044;-68
2021/10/30 11:13:06;;;;;;;6.00;1.45;;;15.80;71.20;;;;;;5043708;28;20044;-68
2021/10/30 11:15:45;;;;;;;6.80;2.03;;;15.80;71.50;;;;;;5038989;28;20031;-70
2021/10/30 11:18:56;;;;;;;9.23;1.67;;;15.70;72.70;;;;;;5042711;28;20029;-68
2021/10/30 11:21:20;;;;;;;7.32;1.75;;;15.70;72.30;;;;;;5038816;28;20827;-68
2021/10/30 11:23:54;;;;;;;8.85;1.80;;;15.70;73.80;;;;;;5048427;28;20082;-68
2021/10/30 11:26:24;;;;;;;5.45;1.67;;;15.70;73.40;;;;;;5049167;28;20063;-71
2021/10/30 11:28:51;;;;;;;6.05;1.70;;;15.70;73.30;;;;;;5050856;28;20029;-67
2021/10/30 11:31:30;;;;;;;7.22;1.40;;;15.70;73.50;;;;;;5052618;28;20743;-74
2021/10/30 11:34:00;;;;;;;7.00;1.60;;;15.60;74.00;;;;;;5049438;28;20021;-69
2021/10/30 11:36:29;;;;;;;6.50;1.33;;;15.50;75.20;;;;;;5043496;28;20025;-72
2021/10/30 11:38:59;;;;;;;9.98;1.55;;;15.50;74.90;;;;;;5050589;28;20368;-68
2021/10/30 11:41:31;;;;;;;6.05;1.70;;;15.50;75.80;;;;;;5049592;28;20110;-68
2021/10/30 11:43:59;;;;;;;5.70;1.50;;;15.40;75.60;;;;;;5049583;28;20113;-72
2021/10/30 11:46:26;;;;;;;6.43;1.25;;;15.30;75.70;;;;;;5045726;28;20021;-71
2021/10/30 11:48:59;;;;;;;8.95;1.77;;;15.20;76.30;;;;;;5046399;28;20075;-67
2021/10/30 11:51:29;;;;;;;7.07;1.52;;;15.10;78.00;;;;;;5053272;28;20156;-74
2021/10/30 11:53:57;;;;;;;3.88;1.27;;;15.00;78.50;;;;;;5053207;28;20049;-75
2021/10/30 11:56:28;;;;;;;7.43;1.20;;;14.90;78.80;;;;;;5046456;28;20017;-71
2021/10/30 11:59:01;;;;;;;6.20;1.67;;;14.80;80.00;;;;;;5053121;28;20021;-68
2021/10/30 12:01:33;;;;;;;6.40;1.48;;;14.70;81.10;;;;;;5053163;28;20021;-68
2021/10/30 12:04:05;;;;;;;7.03;1.58;;;14.70;80.70;;;;;;5053186;28;20039;-71
2021/10/30 12:06:39;;;;;;;7.93;1.75;;;14.60;81.40;;;;;;5050619;28;20067;-66
2021/10/30 12:09:20;;;;;;;7.13;1.73;;;14.50;81.80;;;;;;5046185;28;20072;-66
2021/10/30 12:11:51;;;;;;;7.88;1.65;;;14.50;83.00;;;;;;5055998;28;20108;-67
2021/10/30 12:14:29;;;;;;;4.07;1.60;;;14.40;83.00;;;;;;5051644;28;20167;-70
2021/10/30 12:17:03;;;;;;;9.50;1.80;;;14.40;84.40;;;;;;5052534;28;20040;-68
2021/10/30 12:19:34;;;;;;;5.88;1.73;;;14.40;84.50;;;;;;5052696;28;20062;-66
2021/10/30 12:22:21;;;;;;;5.07;1.85;;;14.50;84.80;;;;;;5051886;28;20029;-70
2021/10/30 12:25:05;;;;;;;6.88;2.17;;;14.50;83.00;;;;;;5047210;28;20030;-68
2021/10/30 12:27:53;;;;;;;5.45;1.60;;;14.60;82.60;;;;;;5052311;28;20033;-68
2021/10/30 12:30:23;;;;;;;4.70;1.67;;;14.60;83.30;;;;;;5048039;28;20136;-68
2021/10/30 12:32:51;;;;;;;6.35;1.83;;;14.60;83.10;;;;;;5046707;28;20552;-66
2021/10/30 12:35:38;;;;;;;5.72;1.83;;;14.60;84.30;;;;;;5052458;28;20047;-68
2021/10/30 12:38:13;;;;;;;8.48;1.83;;;14.80;83.90;;;;;;5051573;28;20029;-72
2021/10/30 12:40:41;;;;;;;5.28;1.30;;;14.90;82.00;;;;;;5052437;28;20025;-73
2021/10/30 12:43:20;;;;;;;6.20;1.40;;;14.90;82.80;;;;;;5050866;28;20514;-65
2021/10/30 12:45:58;;;;;;;5.68;1.83;;;14.90;82.30;;;;;;5051556;28;20505;-65
2021/10/30 12:48:36;;;;;;;9.10;2.28;;;14.90;81.90;;;;;;5047731;28;20108;-72
2021/10/30 12:51:12;;;;;;;5.97;1.38;;;14.90;83.00;;;;;;5046921;28;20032;-66
2021/10/30 12:53:40;;;;;;;6.88;1.83;;;14.90;82.30;;;;;;5051432;22;20060;-73
2021/10/30 12:56:15;;;;;;;5.95;1.48;;;14.90;82.00;;;;;;5064172;28;20409;-68
2021/10/30 12:58:46;;;;;;;6.65;1.80;;;14.90;82.70;;;;;;5048370;28;20024;-70